Terminal Aerodrome Forecast
Issued by NWS Cleveland, OH

Home | Current Version | Previous Version | Text Only | Print | Product List | Glossary On
Versions: 1 2 3 4 5 6 7 8 9 10 11 12 13 14 15 16 17 18 19 20 21 22 23 24 25 26 27 28 29 30 31 32
000
FTUS41 KCLE 020500
TAFCLE
TAF
KCLE 020520Z 0206/0312 16005KT 5SM BR SCT250
      TEMPO 0206/0210 2SM BR
     FM021400 17008KT P6SM SCT100 BKN200
     FM022300 16010KT P6SM FEW050 BKN150
     FM030600 16010G20KT P6SM BKN250=

USA.gov is the U.S. government's official web portal to all federal, state and local government web resources and services.